Time;durP1;ratioP1;P1;durP2;ratioP2;P2;SDS_P1;SDS_P2;PMS_P1;PMS_P2;Temp;Humidity;BMP_temperature;BMP_pressure;BME280_temperature;BME280_humidity;BME280_pressure;Samples;Min_cycle;Max_cycle;Signal;HPM_P1;HPM_P2
2024/02/14 00:00:09;;;;;;;14.27;9.90;;;4.00;1.00;;;;;;5113348;27;20242;-74
2024/02/14 00:02:37;;;;;;;11.15;9.30;;;4.00;1.00;;;;;;5092933;28;20250;-72
2024/02/14 00:05:05;;;;;;;10.77;9.68;;;4.00;1.00;;;;;;5110040;27;20731;-73
2024/02/14 00:07:33;;;;;;;14.30;11.27;;;4.00;1.00;;;;;;5109672;27;20312;-77
2024/02/14 00:10:00;;;;;;;10.77;9.23;;;4.00;1.00;;;;;;5110272;27;20243;-74
2024/02/14 00:12:27;;;;;;;10.40;9.30;;;4.00;1.00;;;;;;5110581;27;20246;-74
2024/02/14 00:14:54;;;;;;;9.85;8.95;;;4.10;1.00;;;;;;5108171;27;20247;-76
2024/02/14 00:17:22;;;;;;;12.63;10.35;;;4.10;1.00;;;;;;5107366;27;20320;-74
2024/02/14 00:19:49;;;;;;;15.13;10.23;;;4.00;1.00;;;;;;5106152;27;20395;-73
2024/02/14 00:22:17;;;;;;;14.52;9.73;;;4.00;1.00;;;;;;5108839;27;20334;-73
2024/02/14 00:24:45;;;;;;;12.45;9.55;;;3.90;1.00;;;;;;5096009;27;20239;-74
2024/02/14 00:27:14;;;;;;;14.02;10.63;;;3.80;1.00;;;;;;5109364;27;20309;-73
2024/02/14 00:29:41;;;;;;;14.73;10.20;;;3.70;1.00;;;;;;5109667;27;20292;-72
2024/02/14 00:32:08;;;;;;;10.45;9.13;;;3.70;1.00;;;;;;5111138;27;20239;-73
2024/02/14 00:34:35;;;;;;;11.35;10.20;;;3.70;1.00;;;;;;5108261;27;20235;-73
2024/02/14 00:37:02;;;;;;;11.27;9.90;;;3.70;1.00;;;;;;5108380;27;20715;-73
2024/02/14 00:39:29;;;;;;;17.05;12.43;;;3.70;1.00;;;;;;5109327;27;20752;-74
2024/02/14 00:41:58;;;;;;;10.73;9.32;;;3.70;1.00;;;;;;5108732;27;20693;-73
2024/02/14 00:44:24;;;;;;;15.13;10.55;;;3.70;1.00;;;;;;5110061;27;21073;-74
2024/02/14 00:46:59;;;;;;;13.80;10.60;;;3.80;1.00;;;;;;5108796;27;20450;-73
2024/02/14 00:49:26;;;;;;;12.80;10.05;;;3.80;1.00;;;;;;5109032;27;20238;-73
2024/02/14 00:51:53;;;;;;;11.68;10.30;;;3.80;1.00;;;;;;5109175;27;20240;-73
2024/02/14 00:54:20;;;;;;;11.73;9.70;;;3.80;1.00;;;;;;5109000;27;20239;-73
2024/02/14 00:56:47;;;;;;;13.90;9.85;;;3.80;1.00;;;;;;5110349;27;21041;-74
2024/02/14 00:59:16;;;;;;;9.52;8.48;;;3.80;1.00;;;;;;5109007;27;20257;-73
2024/02/14 01:01:44;;;;;;;11.70;8.45;;;3.80;1.00;;;;;;5109712;27;20719;-74
2024/02/14 01:04:11;;;;;;;11.70;9.55;;;3.90;1.00;;;;;;5109284;27;20235;-75
2024/02/14 01:06:38;;;;;;;10.88;9.57;;;3.90;1.00;;;;;;5108265;27;20239;-74
2024/02/14 01:09:05;;;;;;;16.98;10.10;;;4.00;1.00;;;;;;5108656;27;20591;-77
2024/02/14 01:11:32;;;;;;;10.30;9.05;;;4.00;1.00;;;;;;5109815;27;20231;-73
2024/02/14 01:13:59;;;;;;;11.40;10.07;;;4.10;1.00;;;;;;5109410;27;20260;-72
2024/02/14 01:16:27;;;;;;;9.73;8.73;;;4.10;1.00;;;;;;5109263;27;20243;-74
2024/02/14 01:18:54;;;;;;;11.95;9.75;;;4.10;1.00;;;;;;5109135;27;20242;-75
2024/02/14 01:21:21;;;;;;;11.88;9.07;;;3.90;1.00;;;;;;5108914;27;20326;-73
2024/02/14 01:23:48;;;;;;;12.18;9.35;;;3.80;1.00;;;;;;5107490;27;20267;-74
2024/02/14 01:26:15;;;;;;;9.73;8.00;;;3.80;1.00;;;;;;5110475;27;20231;-73
2024/02/14 01:28:44;;;;;;;13.70;10.25;;;3.80;1.00;;;;;;5107458;27;21011;-73
2024/02/14 01:31:12;;;;;;;9.45;8.45;;;3.80;1.00;;;;;;5106120;27;20247;-72
2024/02/14 01:33:40;;;;;;;9.32;8.35;;;3.80;1.00;;;;;;5103874;27;20231;-72
2024/02/14 01:36:07;;;;;;;9.50;8.60;;;3.80;1.00;;;;;;5109674;27;20444;-73
2024/02/14 01:38:35;;;;;;;12.43;9.43;;;3.70;1.00;;;;;;5106394;27;20239;-74
2024/02/14 01:41:03;;;;;;;10.07;9.07;;;3.60;1.00;;;;;;5106259;27;20263;-75
2024/02/14 01:43:30;;;;;;;10.50;9.38;;;3.60;1.00;;;;;;5106445;27;20239;-73
2024/02/14 01:46:04;;;;;;;10.23;8.57;;;3.70;1.00;;;;;;5106518;27;20266;-73
2024/02/14 01:48:31;;;;;;;10.93;8.63;;;3.60;1.00;;;;;;5109074;27;20267;-72
2024/02/14 01:51:04;;;;;;;10.27;8.45;;;3.60;1.00;;;;;;5108524;27;20715;-72
2024/02/14 01:53:32;;;;;;;10.95;9.32;;;3.60;1.00;;;;;;5106449;27;20236;-75
2024/02/14 01:56:00;;;;;;;11.45;8.88;;;3.70;1.00;;;;;;5108483;27;20284;-74
2024/02/14 01:58:27;;;;;;;10.35;8.73;;;3.70;1.00;;;;;;5106911;27;20243;-73
2024/02/14 02:00:58;;;;;;;12.05;9.85;;;3.70;1.00;;;;;;5106614;27;20353;-73
2024/02/14 02:03:25;;;;;;;10.48;8.18;;;3.70;1.00;;;;;;5105517;27;20753;-72
2024/02/14 02:05:53;;;;;;;9.80;7.63;;;3.80;1.00;;;;;;5105887;27;20981;-71
2024/02/14 02:08:22;;;;;;;10.38;9.48;;;3.80;1.00;;;;;;5106887;27;20243;-71
2024/02/14 02:10:49;;;;;;;9.10;8.20;;;3.90;1.00;;;;;;5098432;27;20268;-71
2024/02/14 02:13:16;;;;;;;9.60;7.82;;;3.90;1.00;;;;;;5086372;28;21113;-70
2024/02/14 02:15:45;;;;;;;9.82;8.05;;;3.90;1.00;;;;;;5088039;27;20343;-73
2024/02/14 02:18:13;;;;;;;9.40;8.18;;;3.90;1.00;;;;;;5088584;28;20688;-71
2024/02/14 02:20:42;;;;;;;10.48;8.27;;;3.80;1.00;;;;;;5086725;28;20261;-70
2024/02/14 02:23:14;;;;;;;10.57;8.07;;;3.90;1.00;;;;;;5087026;28;20271;-70
2024/02/14 02:25:41;;;;;;;10.05;7.55;;;3.80;1.00;;;;;;5087512;28;20326;-71
2024/02/14 02:28:09;;;;;;;8.60;7.80;;;3.80;1.00;;;;;;5086424;28;20322;-74
2024/02/14 02:30:36;;;;;;;8.85;7.75;;;3.80;1.00;;;;;;5089283;28;21333;-71
2024/02/14 02:33:04;;;;;;;8.63;7.78;;;3.70;1.00;;;;;;5089522;27;20327;-71
2024/02/14 02:35:31;;;;;;;9.25;8.30;;;3.70;1.00;;;;;;5089420;28;20795;-70
2024/02/14 02:37:58;;;;;;;9.90;8.27;;;3.70;1.00;;;;;;5086316;28;20241;-70
2024/02/14 02:40:27;;;;;;;10.70;8.65;;;3.60;1.00;;;;;;5090769;28;20293;-70
2024/02/14 02:42:53;;;;;;;9.80;7.88;;;3.60;1.00;;;;;;5089653;28;20875;-71
2024/02/14 02:45:21;;;;;;;8.32;7.47;;;3.60;1.00;;;;;;5090295;28;21118;-71
2024/02/14 02:47:48;;;;;;;8.65;7.75;;;3.60;1.00;;;;;;5092645;27;20238;-73
2024/02/14 02:50:15;;;;;;;11.25;8.30;;;3.60;1.00;;;;;;5095319;28;20949;-71
2024/02/14 02:52:41;;;;;;;11.13;7.90;;;3.60;1.00;;;;;;5090702;28;20235;-72
2024/02/14 02:55:09;;;;;;;9.13;7.82;;;3.50;1.00;;;;;;5093547;28;20239;-71
2024/02/14 02:57:39;;;;;;;8.52;7.72;;;3.50;1.00;;;;;;5093608;28;20291;-74
2024/02/14 03:00:08;;;;;;;8.57;7.15;;;3.50;1.00;;;;;;5090506;28;21011;-72
2024/02/14 03:02:38;;;;;;;9.02;7.88;;;3.50;1.00;;;;;;5089373;28;20235;-74
2024/02/14 03:05:10;;;;;;;9.02;8.13;;;3.50;1.00;;;;;;5088755;28;20231;-72
2024/02/14 03:07:37;;;;;;;8.75;7.63;;;3.50;1.00;;;;;;5091043;28;20244;-71
2024/02/14 03:10:07;;;;;;;9.27;8.20;;;3.40;1.00;;;;;;5090560;27;20263;-70
2024/02/14 03:12:35;;;;;;;9.73;8.30;;;3.40;1.00;;;;;;5109854;27;20235;-75
2024/02/14 03:15:05;;;;;;;9.35;7.00;;;3.50;1.00;;;;;;5107581;27;20227;-75
2024/02/14 03:17:32;;;;;;;10.07;8.55;;;3.50;1.00;;;;;;5106528;27;20240;-75
2024/02/14 03:19:59;;;;;;;9.00;7.60;;;3.60;1.00;;;;;;5108434;27;20301;-74
2024/02/14 03:22:26;;;;;;;9.38;7.38;;;3.60;1.00;;;;;;5110498;27;21067;-76
2024/02/14 03:24:53;;;;;;;9.55;8.30;;;3.50;1.00;;;;;;5110986;27;21141;-75
2024/02/14 03:27:23;;;;;;;10.35;8.35;;;3.50;1.00;;;;;;5109064;27;20231;-73
2024/02/14 03:29:50;;;;;;;8.80;7.32;;;3.50;1.00;;;;;;5110738;27;20236;-74
2024/02/14 03:32:19;;;;;;;8.43;7.63;;;3.50;1.00;;;;;;5110509;27;20684;-74
2024/02/14 03:34:46;;;;;;;8.23;7.43;;;3.50;1.00;;;;;;5108004;27;20745;-75
2024/02/14 03:37:14;;;;;;;9.02;8.15;;;3.50;1.00;;;;;;5110357;27;20885;-74
2024/02/14 03:39:41;;;;;;;11.43;8.35;;;3.50;1.00;;;;;;5107353;27;20239;-75
2024/02/14 03:42:08;;;;;;;8.85;7.97;;;3.50;1.00;;;;;;5105505;27;20319;-75
2024/02/14 03:44:37;;;;;;;9.40;8.38;;;3.50;1.00;;;;;;5108261;27;20231;-74
2024/02/14 03:47:06;;;;;;;9.57;8.57;;;3.60;1.00;;;;;;5110324;27;20316;-76
2024/02/14 03:49:34;;;;;;;9.40;8.38;;;3.50;1.00;;;;;;5107991;27;20295;-76
2024/02/14 03:52:01;;;;;;;9.57;8.55;;;3.40;1.00;;;;;;5109232;27;20235;-75
2024/02/14 03:54:28;;;;;;;11.15;9.68;;;3.50;1.00;;;;;;5111168;27;20265;-75
2024/02/14 03:56:55;;;;;;;11.85;9.98;;;3.50;1.00;;;;;;5108816;27;20239;-76
2024/02/14 03:59:24;;;;;;;9.50;8.60;;;3.50;1.00;;;;;;5109745;27;20324;-75
2024/02/14 04:01:53;;;;;;;11.18;10.00;;;3.50;1.00;;;;;;5110667;27;20270;-76
2024/02/14 04:04:20;;;;;;;11.20;9.25;;;3.50;1.00;;;;;;5108614;27;20235;-74
2024/02/14 04:06:48;;;;;;;20.45;11.07;;;3.50;1.00;;;;;;5109304;27;20297;-74
2024/02/14 04:09:15;;;;;;;10.95;9.82;;;3.50;1.00;;;;;;5109648;27;21019;-74
2024/02/14 04:11:42;;;;;;;13.30;9.48;;;3.50;1.00;;;;;;5108134;27;20240;-76
2024/02/14 04:14:09;;;;;;;10.77;9.55;;;3.40;1.00;;;;;;5108826;27;20243;-75
2024/02/14 04:16:37;;;;;;;12.40;9.80;;;3.40;1.00;;;;;;5108672;27;20330;-77
2024/02/14 04:19:04;;;;;;;11.90;9.20;;;3.40;1.00;;;;;;5101851;27;20242;-74
2024/02/14 04:21:32;;;;;;;10.43;9.32;;;3.50;1.00;;;;;;5109917;27;20290;-76
2024/02/14 04:24:01;;;;;;;10.85;9.20;;;3.50;1.00;;;;;;5110084;27;20326;-73
2024/02/14 04:26:28;;;;;;;10.65;9.55;;;3.60;1.00;;;;;;5108661;27;20246;-74
2024/02/14 04:28:54;;;;;;;11.77;10.57;;;3.70;1.00;;;;;;5111253;27;20255;-72
2024/02/14 04:31:21;;;;;;;10.63;9.50;;;3.70;1.00;;;;;;5110061;27;20278;-74
2024/02/14 04:33:51;;;;;;;10.15;9.15;;;3.60;1.00;;;;;;5110177;27;20326;-75
2024/02/14 04:36:19;;;;;;;12.77;11.43;;;3.70;1.00;;;;;;5110511;27;20236;-73
2024/02/14 04:38:47;;;;;;;12.88;10.40;;;3.70;1.00;;;;;;5109696;27;21115;-74
2024/02/14 04:41:15;;;;;;;15.48;10.90;;;3.70;1.00;;;;;;5109709;27;20294;-73
2024/02/14 04:43:42;;;;;;;11.32;10.07;;;3.90;1.00;;;;;;5111236;27;20243;-74
2024/02/14 04:46:09;;;;;;;11.23;10.18;;;3.90;1.00;;;;;;5108425;27;20263;-73
2024/02/14 04:48:36;;;;;;;12.52;11.15;;;4.00;1.00;;;;;;5112852;27;20775;-73
2024/02/14 04:51:04;;;;;;;11.90;10.75;;;4.00;1.00;;;;;;5106218;27;20238;-75
2024/02/14 04:53:31;;;;;;;12.85;9.52;;;4.10;1.00;;;;;;5109608;27;20235;-74
2024/02/14 04:55:58;;;;;;;12.68;10.55;;;4.10;1.00;;;;;;5109355;27;20239;-76
2024/02/14 04:58:27;;;;;;;14.43;10.20;;;4.10;1.00;;;;;;5110760;27;20242;-74
2024/02/14 05:00:54;;;;;;;12.05;10.52;;;4.10;1.00;;;;;;5106513;27;20257;-73
2024/02/14 05:03:24;;;;;;;13.32;11.93;;;4.10;1.00;;;;;;5101038;27;20246;-74
2024/02/14 05:05:51;;;;;;;14.60;10.10;;;4.10;1.00;;;;;;5103906;27;20385;-75
2024/02/14 05:08:18;;;;;;;12.95;10.30;;;4.10;1.00;;;;;;5108604;27;20235;-73
2024/02/14 05:10:45;;;;;;;13.48;9.48;;;4.10;1.00;;;;;;5107298;27;20268;-73
2024/02/14 05:13:13;;;;;;;10.30;9.38;;;4.10;1.00;;;;;;5108331;27;20342;-74
2024/02/14 05:15:41;;;;;;;11.77;10.05;;;4.10;1.00;;;;;;5109403;27;21102;-73
2024/02/14 05:18:09;;;;;;;11.35;10.15;;;4.20;1.00;;;;;;5108343;27;20301;-73
2024/02/14 05:20:38;;;;;;;10.10;8.88;;;4.20;1.00;;;;;;5108048;27;20249;-74
2024/02/14 05:23:05;;;;;;;10.40;9.40;;;4.30;1.00;;;;;;5106392;27;20322;-73
2024/02/14 05:25:32;;;;;;;13.32;10.30;;;4.20;1.00;;;;;;5106989;27;20238;-73
2024/02/14 05:28:00;;;;;;;11.48;10.15;;;4.30;1.00;;;;;;5107004;27;20231;-74
2024/02/14 05:30:27;;;;;;;16.13;14.25;;;4.30;1.00;;;;;;5108071;27;20236;-74
2024/02/14 05:32:56;;;;;;;10.38;9.25;;;4.30;1.00;;;;;;5107365;27;20243;-74
2024/02/14 05:35:23;;;;;;;13.73;9.55;;;4.30;1.00;;;;;;5108961;27;20694;-75
2024/02/14 05:37:51;;;;;;;10.85;9.15;;;4.40;1.00;;;;;;5107390;27;20345;-74
2024/02/14 05:40:19;;;;;;;10.45;9.27;;;4.40;1.00;;;;;;5109872;27;20680;-73
2024/02/14 05:42:46;;;;;;;12.02;8.32;;;4.40;1.00;;;;;;5108668;27;20239;-73
2024/02/14 05:45:13;;;;;;;13.05;8.85;;;4.30;1.00;;;;;;5107868;27;20236;-78
2024/02/14 05:47:40;;;;;;;12.30;9.48;;;4.30;1.00;;;;;;5108556;27;20328;-73
2024/02/14 05:50:11;;;;;;;15.77;10.10;;;4.30;1.00;;;;;;5107543;27;20227;-73
2024/02/14 05:52:38;;;;;;;10.43;8.95;;;4.40;1.00;;;;;;5106329;27;20247;-73
2024/02/14 05:55:06;;;;;;;10.77;9.68;;;4.40;1.00;;;;;;5108296;27;20232;-73
2024/02/14 05:57:33;;;;;;;10.18;9.13;;;4.40;1.00;;;;;;5106593;27;20693;-74
2024/02/14 06:00:00;;;;;;;11.93;8.18;;;4.50;1.00;;;;;;5107116;27;20235;-73
2024/02/14 06:02:26;;;;;;;13.43;9.68;;;4.50;1.00;;;;;;5106653;27;20255;-74
2024/02/14 06:04:53;;;;;;;9.13;7.00;;;4.50;1.00;;;;;;5106215;27;20925;-76
2024/02/14 06:07:22;;;;;;;8.48;7.65;;;4.50;1.00;;;;;;5106442;27;20239;-74
2024/02/14 06:09:49;;;;;;;11.95;8.02;;;4.50;1.00;;;;;;5107495;27;20231;-74
2024/02/14 06:12:15;;;;;;;9.50;7.80;;;4.60;1.00;;;;;;5109369;27;20297;-73
2024/02/14 06:14:42;;;;;;;10.15;8.63;;;4.60;1.00;;;;;;5106467;27;20255;-74
2024/02/14 06:17:10;;;;;;;9.45;8.13;;;4.60;1.00;;;;;;5106826;27;21010;-73
2024/02/14 06:19:38;;;;;;;12.05;9.13;;;4.70;1.00;;;;;;5106922;27;20239;-74
2024/02/14 06:22:05;;;;;;;15.40;9.73;;;4.70;1.00;;;;;;5105894;27;20231;-73
2024/02/14 06:24:34;;;;;;;11.73;8.80;;;4.70;1.00;;;;;;5106747;27;20251;-75
2024/02/14 06:27:00;;;;;;;12.23;9.60;;;4.80;1.00;;;;;;5108049;27;20235;-74
2024/02/14 06:29:27;;;;;;;11.55;10.07;;;4.90;1.00;;;;;;5107306;27;20236;-72
2024/02/14 06:31:54;;;;;;;9.50;7.38;;;4.90;1.00;;;;;;5108417;27;20751;-75
2024/02/14 06:34:21;;;;;;;10.88;8.20;;;5.00;1.00;;;;;;5108279;27;20246;-76
2024/02/14 06:36:48;;;;;;;12.32;9.00;;;5.00;1.00;;;;;;5107656;27;20288;-74
2024/02/14 06:39:15;;;;;;;11.50;8.18;;;5.20;1.00;;;;;;5108693;27;20256;-74
2024/02/14 06:41:46;;;;;;;9.43;7.28;;;5.20;1.00;;;;;;5108256;27;20241;-75
2024/02/14 06:44:13;;;;;;;14.52;8.23;;;5.20;1.00;;;;;;5108339;27;20238;-74
2024/02/14 06:46:41;;;;;;;10.43;8.73;;;5.30;1.00;;;;;;5105580;27;20335;-75
2024/02/14 06:49:08;;;;;;;12.68;8.55;;;5.30;1.00;;;;;;5108042;27;21048;-75
2024/02/14 06:51:35;;;;;;;11.73;8.85;;;5.30;1.00;;;;;;5108112;27;20249;-76
2024/02/14 06:54:02;;;;;;;13.90;8.75;;;5.40;1.00;;;;;;5104708;27;20308;-75
2024/02/14 06:56:31;;;;;;;14.05;9.13;;;5.40;1.00;;;;;;5105893;27;20621;-76
2024/02/14 06:59:00;;;;;;;8.32;7.43;;;5.40;1.00;;;;;;5104333;27;20551;-74
2024/02/14 07:01:27;;;;;;;10.85;8.55;;;5.50;1.00;;;;;;5109045;27;20317;-75
2024/02/14 07:03:54;;;;;;;9.73;8.60;;;5.50;1.00;;;;;;5106852;27;20252;-75
2024/02/14 07:06:22;;;;;;;10.02;7.50;;;5.40;1.00;;;;;;5108913;27;21011;-77
2024/02/14 07:08:49;;;;;;;14.60;8.77;;;5.30;1.00;;;;;;5105513;27;20740;-75
2024/02/14 07:11:18;;;;;;;11.07;7.82;;;5.40;1.00;;;;;;5105770;27;20722;-75
2024/02/14 07:13:45;;;;;;;12.95;7.80;;;5.50;1.00;;;;;;5106794;27;20243;-76
2024/02/14 07:16:13;;;;;;;13.27;8.88;;;5.70;1.00;;;;;;5103159;27;20243;-75
2024/02/14 07:18:40;;;;;;;9.40;8.35;;;5.60;1.00;;;;;;5109317;27;20239;-74
2024/02/14 07:21:07;;;;;;;15.48;9.05;;;5.60;1.00;;;;;;5108909;27;20740;-76
2024/02/14 07:23:34;;;;;;;8.75;7.80;;;5.60;1.00;;;;;;5106520;27;20777;-76
2024/02/14 07:26:02;;;;;;;12.63;9.30;;;5.60;1.00;;;;;;5109864;27;20266;-76
2024/02/14 07:28:29;;;;;;;10.60;8.48;;;5.60;1.00;;;;;;5108289;27;20728;-76
2024/02/14 07:30:56;;;;;;;8.43;7.63;;;5.50;1.00;;;;;;5108017;27;20334;-75
2024/02/14 07:33:24;;;;;;;8.60;7.25;;;5.60;1.00;;;;;;5110000;27;20245;-76
2024/02/14 07:35:51;;;;;;;8.57;7.78;;;5.70;1.00;;;;;;5107078;27;20228;-75
2024/02/14 07:38:18;;;;;;;8.30;6.90;;;5.70;1.00;;;;;;5107479;27;20327;-74
2024/02/14 07:40:45;;;;;;;12.18;7.50;;;5.80;1.00;;;;;;5109672;27;20302;-76
2024/02/14 07:43:12;;;;;;;10.48;8.45;;;5.90;1.00;;;;;;5110130;27;20335;-77
2024/02/14 07:45:38;;;;;;;11.80;7.32;;;6.00;1.00;;;;;;5108768;27;20925;-74
2024/02/14 07:48:06;;;;;;;8.13;6.60;;;6.20;1.00;;;;;;5111489;27;20258;-74
2024/02/14 07:50:34;;;;;;;7.63;6.40;;;6.30;1.00;;;;;;5109154;27;20585;-73
2024/02/14 07:53:02;;;;;;;21.08;8.55;;;6.30;1.00;;;;;;5108248;27;20240;-74
2024/02/14 07:55:29;;;;;;;9.05;6.40;;;6.30;1.00;;;;;;5109054;27;20308;-72
2024/02/14 07:57:56;;;;;;;6.43;5.72;;;6.40;1.00;;;;;;5109252;27;20711;-72
2024/02/14 08:00:23;;;;;;;8.07;6.17;;;6.40;1.00;;;;;;5108025;27;20248;-71
2024/02/14 08:02:50;;;;;;;5.93;5.43;;;6.30;1.00;;;;;;5112271;27;20593;-72
2024/02/14 08:05:17;;;;;;;7.10;6.40;;;6.30;1.00;;;;;;5107380;27;20410;-74
2024/02/14 08:07:47;;;;;;;7.43;6.63;;;6.30;1.00;;;;;;5110076;27;20294;-75
2024/02/14 08:10:14;;;;;;;6.80;5.80;;;6.30;1.00;;;;;;5108187;27;20236;-75
2024/02/14 08:12:41;;;;;;;5.93;5.25;;;6.30;1.00;;;;;;5109168;27;20240;-74
2024/02/14 08:15:08;;;;;;;9.48;5.70;;;6.30;1.00;;;;;;5109279;27;20263;-74
2024/02/14 08:17:36;;;;;;;7.28;6.53;;;6.20;1.00;;;;;;5105486;27;20239;-72
2024/02/14 08:20:04;;;;;;;7.88;6.35;;;6.20;1.00;;;;;;5096632;27;20263;-76
2024/02/14 08:22:31;;;;;;;8.52;6.10;;;6.20;1.00;;;;;;5108464;27;20240;-74
2024/02/14 08:25:00;;;;;;;7.03;6.28;;;6.20;1.00;;;;;;5109886;27;20745;-72
2024/02/14 08:27:27;;;;;;;6.95;6.15;;;6.30;1.00;;;;;;5110625;27;20286;-71
2024/02/14 08:29:55;;;;;;;6.88;5.93;;;6.40;1.00;;;;;;5106100;27;20327;-75
2024/02/14 08:32:22;;;;;;;9.07;7.03;;;6.40;1.00;;;;;;5109010;27;20251;-74
2024/02/14 08:34:51;;;;;;;7.88;6.00;;;6.50;1.00;;;;;;5109116;27;21096;-74
2024/02/14 08:37:17;;;;;;;7.47;6.03;;;6.50;1.00;;;;;;5109459;27;20239;-75
2024/02/14 08:39:44;;;;;;;7.00;5.47;;;6.60;1.00;;;;;;5104444;27;20252;-74
2024/02/14 08:42:13;;;;;;;6.50;5.80;;;6.60;1.00;;;;;;5109149;27;20345;-74
2024/02/14 08:44:41;;;;;;;6.90;5.88;;;6.60;1.00;;;;;;5107725;27;20340;-75
2024/02/14 08:47:11;;;;;;;5.63;5.20;;;6.50;1.00;;;;;;5107644;27;20244;-74
2024/02/14 08:49:41;;;;;;;10.23;5.97;;;6.50;1.00;;;;;;5107554;27;20266;-74
2024/02/14 08:52:08;;;;;;;8.00;5.72;;;6.50;1.00;;;;;;5106252;27;20276;-74
2024/02/14 08:54:35;;;;;;;6.80;6.10;;;6.50;1.00;;;;;;5109847;27;20240;-76
2024/02/14 08:57:02;;;;;;;7.07;5.75;;;6.50;1.00;;;;;;5105733;27;20324;-74
2024/02/14 08:59:31;;;;;;;6.15;5.55;;;6.50;1.00;;;;;;5108078;27;20302;-74
2024/02/14 09:01:58;;;;;;;6.90;6.20;;;6.50;1.00;;;;;;5108662;27;20324;-74
2024/02/14 09:04:25;;;;;;;6.13;5.53;;;6.60;1.00;;;;;;5108570;27;20292;-75
2024/02/14 09:06:51;;;;;;;7.07;5.38;;;6.70;1.00;;;;;;5108350;27;20237;-73
2024/02/14 09:09:19;;;;;;;7.63;6.10;;;6.70;1.00;;;;;;5109921;27;20233;-72
2024/02/14 09:11:48;;;;;;;6.18;5.57;;;6.70;1.00;;;;;;5087165;28;20238;-73
2024/02/14 09:14:15;;;;;;;8.05;5.60;;;6.80;1.00;;;;;;5107724;27;20241;-73
2024/02/14 09:16:45;;;;;;;6.00;5.50;;;6.80;1.00;;;;;;5105278;27;20251;-74
2024/02/14 09:19:13;;;;;;;7.22;6.53;;;6.80;1.00;;;;;;5110461;27;20258;-74
2024/02/14 09:21:40;;;;;;;6.70;6.03;;;6.90;1.00;;;;;;5109184;27;20821;-75
2024/02/14 09:24:07;;;;;;;11.80;7.00;;;6.90;1.00;;;;;;5108131;27;20654;-74
2024/02/14 09:26:34;;;;;;;6.30;5.70;;;7.00;1.00;;;;;;5110388;27;20259;-73
2024/02/14 09:29:01;;;;;;;8.07;6.63;;;7.00;1.00;;;;;;5106265;27;20458;-73
2024/02/14 09:31:29;;;;;;;6.63;5.47;;;7.00;1.00;;;;;;5108580;27;20977;-71
2024/02/14 09:33:58;;;;;;;10.23;6.05;;;7.00;1.00;;;;;;5104941;27;20491;-74
2024/02/14 09:36:25;;;;;;;6.67;6.07;;;7.10;1.00;;;;;;5106914;27;21025;-74
2024/02/14 09:38:53;;;;;;;6.90;5.13;;;7.00;1.00;;;;;;5108007;27;20488;-71
2024/02/14 09:41:26;;;;;;;7.53;5.57;;;6.90;1.00;;;;;;5111536;27;20457;-71
2024/02/14 09:43:53;;;;;;;6.53;5.80;;;7.00;1.00;;;;;;5110828;27;20238;-72
2024/02/14 09:46:20;;;;;;;5.63;5.13;;;6.90;1.00;;;;;;5110427;27;20714;-73
2024/02/14 09:48:48;;;;;;;6.83;6.30;;;7.00;1.00;;;;;;5111124;27;20791;-73
2024/02/14 09:51:17;;;;;;;6.18;5.57;;;7.10;1.00;;;;;;5098932;27;20484;-73
2024/02/14 09:53:44;;;;;;;9.05;5.75;;;7.10;1.00;;;;;;5107507;27;20246;-72
2024/02/14 09:56:13;;;;;;;6.13;5.53;;;7.10;1.00;;;;;;5107704;27;20239;-74
2024/02/14 09:58:42;;;;;;;7.53;5.70;;;7.10;1.00;;;;;;5109989;27;20538;-73
2024/02/14 10:01:09;;;;;;;6.10;4.87;;;7.10;1.00;;;;;;5107457;27;20454;-74
2024/02/14 10:03:36;;;;;;;6.95;5.10;;;7.10;1.00;;;;;;5107193;27;20585;-72
2024/02/14 10:06:04;;;;;;;4.50;4.10;;;7.10;1.00;;;;;;5106379;27;20308;-73
2024/02/14 10:08:32;;;;;;;5.93;3.90;;;7.20;1.00;;;;;;5103378;27;20733;-73
2024/02/14 10:11:00;;;;;;;5.07;4.60;;;7.10;1.00;;;;;;5102596;27;22365;-75
2024/02/14 10:13:29;;;;;;;5.78;4.22;;;7.20;1.00;;;;;;5102922;27;20238;-75
2024/02/14 10:15:57;;;;;;;5.93;3.90;;;7.20;1.00;;;;;;5108017;27;20342;-74
2024/02/14 10:18:24;;;;;;;5.57;4.10;;;7.30;1.00;;;;;;5107765;27;20555;-74
2024/02/14 10:20:55;;;;;;;4.50;3.27;;;7.40;1.00;;;;;;5103905;27;20521;-75
2024/02/14 10:23:22;;;;;;;4.93;4.38;;;7.40;1.00;;;;;;5105877;27;20484;-75
2024/02/14 10:25:52;;;;;;;4.50;3.50;;;7.50;1.00;;;;;;5104981;27;20227;-73
2024/02/14 10:28:21;;;;;;;4.13;3.73;;;7.50;1.00;;;;;;5104923;27;20941;-74
2024/02/14 10:30:49;;;;;;;4.53;3.90;;;7.40;1.00;;;;;;5103874;27;20456;-75
2024/02/14 10:33:16;;;;;;;4.00;3.70;;;7.50;1.00;;;;;;5109118;27;20511;-77
2024/02/14 10:35:44;;;;;;;6.30;4.40;;;7.60;1.00;;;;;;5103202;27;20462;-77
2024/02/14 10:38:12;;;;;;;3.77;3.20;;;7.70;1.00;;;;;;5106225;27;20482;-75
2024/02/14 10:40:40;;;;;;;3.87;3.57;;;7.70;1.00;;;;;;5106769;27;20555;-75
2024/02/14 10:43:09;;;;;;;5.70;3.50;;;7.70;1.00;;;;;;5102490;27;20492;-76
2024/02/14 10:45:37;;;;;;;4.00;3.60;;;7.50;1.00;;;;;;5104210;27;20240;-76
2024/02/14 10:48:06;;;;;;;4.67;4.27;;;7.50;1.00;;;;;;5104599;27;20474;-74
2024/02/14 10:50:35;;;;;;;5.35;4.22;;;7.50;1.00;;;;;;5104617;27;20454;-77
2024/02/14 10:53:07;;;;;;;4.23;3.90;;;7.40;1.00;;;;;;5102883;27;20322;-74
2024/02/14 10:55:35;;;;;;;4.00;3.53;;;7.50;1.00;;;;;;5104166;27;20446;-73
2024/02/14 10:58:03;;;;;;;5.47;4.13;;;7.50;1.00;;;;;;5104975;27;20460;-76
2024/02/14 11:00:33;;;;;;;4.73;3.70;;;7.50;1.00;;;;;;5104193;27;20558;-74
2024/02/14 11:03:01;;;;;;;7.37;3.70;;;7.60;1.00;;;;;;5102501;27;20511;-76
2024/02/14 11:05:28;;;;;;;5.60;4.07;;;7.60;1.00;;;;;;5107082;27;20462;-75
2024/02/14 11:07:56;;;;;;;4.43;4.13;;;7.80;1.00;;;;;;5106259;27;20462;-75
2024/02/14 11:10:23;;;;;;;5.20;4.17;;;8.00;1.00;;;;;;5107758;27;20460;-77
2024/02/14 11:12:51;;;;;;;4.50;4.07;;;8.20;1.00;;;;;;5111801;27;20465;-75
2024/02/14 11:15:20;;;;;;;6.63;4.00;;;8.30;1.00;;;;;;5106103;27;20461;-75
2024/02/14 11:17:51;;;;;;;4.70;4.07;;;8.50;1.00;;;;;;5102184;27;20465;-75
2024/02/14 11:20:19;;;;;;;4.13;3.70;;;8.50;1.00;;;;;;5108794;27;20525;-74
2024/02/14 11:22:59;;;;;;;4.40;4.00;;;8.50;1.00;;;;;;5108931;27;20465;-75
2024/02/14 11:25:33;;;;;;;4.13;3.60;;;8.50;1.00;;;;;;5108154;27;20275;-74
2024/02/14 11:28:02;;;;;;;5.60;4.50;;;8.50;1.00;;;;;;5108752;27;20454;-74
2024/02/14 11:30:34;;;;;;;4.47;3.60;;;8.50;1.00;;;;;;5104602;27;20531;-73
2024/02/14 11:33:19;;;;;;;4.57;4.17;;;8.40;1.00;;;;;;5106294;27;20446;-74
2024/02/14 11:35:49;;;;;;;3.90;3.57;;;8.40;1.00;;;;;;5106323;27;20894;-76
2024/02/14 11:38:16;;;;;;;4.10;3.70;;;8.40;1.00;;;;;;5110324;27;20463;-77
2024/02/14 11:40:44;;;;;;;4.97;3.63;;;8.30;1.00;;;;;;5106831;27;21933;-77
2024/02/14 11:43:13;;;;;;;3.73;3.43;;;8.30;1.00;;;;;;5109727;27;20525;-78
2024/02/14 11:45:41;;;;;;;3.97;3.67;;;8.20;1.00;;;;;;5108184;27;20465;-75
2024/02/14 11:48:10;;;;;;;6.33;3.93;;;8.20;1.00;;;;;;5107599;27;20527;-73
2024/02/14 11:50:40;;;;;;;4.80;3.93;;;8.30;1.00;;;;;;5105484;27;20458;-74
2024/02/14 11:53:09;;;;;;;8.38;4.60;;;8.30;1.00;;;;;;5105889;27;20905;-73
2024/02/14 11:55:37;;;;;;;7.43;4.40;;;8.30;1.00;;;;;;5105828;27;20357;-74
2024/02/14 11:58:08;;;;;;;4.70;4.30;;;8.30;1.00;;;;;;5107544;27;20464;-75
2024/02/14 12:00:37;;;;;;;5.70;4.47;;;8.30;1.00;;;;;;5107922;27;21311;-78
2024/02/14 12:03:07;;;;;;;6.13;4.47;;;8.40;1.00;;;;;;5109367;27;20613;-78
2024/02/14 12:05:34;;;;;;;5.10;4.60;;;8.40;1.00;;;;;;5109376;27;20558;-76
2024/02/14 12:08:04;;;;;;;4.83;4.43;;;8.20;1.00;;;;;;5107024;27;20448;-77
2024/02/14 12:10:32;;;;;;;5.60;5.07;;;8.30;1.00;;;;;;5108371;27;20488;-77
2024/02/14 12:13:00;;;;;;;7.17;5.40;;;8.30;1.00;;;;;;5105125;27;20454;-77
2024/02/14 12:15:27;;;;;;;5.10;4.60;;;8.40;1.00;;;;;;5106729;27;20477;-76
2024/02/14 12:17:57;;;;;;;9.00;6.10;;;8.40;1.00;;;;;;5105912;27;20516;-77
2024/02/14 12:20:24;;;;;;;9.47;6.03;;;8.40;1.00;;;;;;5110347;27;20457;-78
2024/02/14 12:22:51;;;;;;;10.20;5.30;;;8.50;1.00;;;;;;5107452;27;20490;-74
2024/02/14 12:25:20;;;;;;;6.50;4.83;;;8.60;1.00;;;;;;5109756;27;20469;-75
2024/02/14 12:27:52;;;;;;;8.23;5.30;;;8.70;1.00;;;;;;5105404;27;20498;-73
2024/02/14 12:30:20;;;;;;;5.10;4.60;;;8.60;1.00;;;;;;5104153;27;20450;-72
2024/02/14 12:32:47;;;;;;;5.83;4.80;;;8.60;1.00;;;;;;5107165;27;20512;-73
2024/02/14 12:35:14;;;;;;;9.87;6.87;;;8.60;1.00;;;;;;5106051;27;20539;-74
2024/02/14 12:37:41;;;;;;;6.50;4.87;;;8.70;1.00;;;;;;5103528;27;20470;-75
2024/02/14 12:40:10;;;;;;;4.93;4.53;;;8.80;1.00;;;;;;5106310;27;20549;-73
2024/02/14 12:42:38;;;;;;;11.33;5.50;;;8.80;1.00;;;;;;5105465;27;21269;-76
2024/02/14 12:45:07;;;;;;;5.43;4.93;;;8.70;1.00;;;;;;5105885;27;20497;-76
2024/02/14 12:47:34;;;;;;;8.40;7.57;;;8.70;1.00;;;;;;5108831;27;20464;-74
2024/02/14 12:50:02;;;;;;;8.73;5.63;;;8.80;1.00;;;;;;5107304;27;20481;-72
2024/02/14 12:52:28;;;;;;;8.07;4.90;;;8.80;1.00;;;;;;5104365;27;20497;-76
2024/02/14 12:54:55;;;;;;;5.67;5.17;;;8.80;1.00;;;;;;5105817;27;20452;-73
2024/02/14 12:57:22;;;;;;;5.93;5.33;;;8.80;1.00;;;;;;5104057;27;21318;-75
2024/02/14 12:59:51;;;;;;;5.90;5.10;;;8.80;1.00;;;;;;5104585;27;20557;-74
2024/02/14 13:02:18;;;;;;;6.27;5.67;;;8.80;1.00;;;;;;5103434;27;21229;-74
2024/02/14 13:04:44;;;;;;;8.70;5.47;;;8.70;1.00;;;;;;5104822;27;20531;-74